Time;durP1;ratioP1;P1;durP2;ratioP2;P2;SDS_P1;SDS_P2;PMS_P1;PMS_P2;Temp;Humidity;BMP_temperature;BMP_pressure;BME280_temperature;BME280_humidity;BME280_pressure;Samples;Min_cycle;Max_cycle;Signal;HPM_P1;HPM_P2
2021/07/27 00:02:12;;;;;;;7.78;6.97;;;;;;;19.78;100.00;100352.50;4958351;28;20704;-77
2021/07/27 00:04:40;;;;;;;7.22;6.53;;;;;;;19.63;100.00;100343.25;4958131;28;20717;-78
2021/07/27 00:07:05;;;;;;;8.07;6.82;;;;;;;19.43;100.00;100341.31;4937729;29;20283;-79
2021/07/27 00:09:31;;;;;;;7.00;6.35;;;;;;;19.46;100.00;100337.91;4921898;29;20188;-77
2021/07/27 00:12:02;;;;;;;6.63;6.03;;;;;;;19.37;100.00;100345.44;4971662;28;20222;-77
2021/07/27 00:14:30;;;;;;;6.50;5.80;;;;;;;19.36;100.00;100336.38;4926044;29;20189;-77
2021/07/27 00:16:58;;;;;;;6.78;6.15;;;;;;;19.31;100.00;100342.06;4939450;28;20235;-78
2021/07/27 00:19:26;;;;;;;7.40;6.40;;;;;;;19.44;100.00;100337.44;4954192;29;20215;-78
2021/07/27 00:21:54;;;;;;;7.22;5.90;;;;;;;19.36;100.00;100335.56;4969094;28;20298;-79
2021/07/27 00:24:25;;;;;;;6.90;6.20;;;;;;;19.24;100.00;100341.00;4972979;28;20214;-79
2021/07/27 00:26:58;;;;;;;8.55;6.22;;;;;;;19.20;100.00;100342.81;4952382;28;20243;-78
2021/07/27 00:29:24;;;;;;;7.00;6.40;;;;;;;19.18;100.00;100339.59;4952576;29;20607;-78
2021/07/27 00:31:49;;;;;;;10.02;6.20;;;;;;;19.24;100.00;100341.00;4951834;28;20226;-79
2021/07/27 00:34:17;;;;;;;6.25;5.65;;;;;;;19.18;100.00;100331.34;4941803;29;20190;-79
2021/07/27 00:36:45;;;;;;;7.03;5.95;;;;;;;19.15;100.00;100336.72;4921353;28;20235;-79
2021/07/27 00:39:11;;;;;;;7.05;6.35;;;;;;;19.05;100.00;100332.41;4938604;29;20247;-78
2021/07/27 00:41:36;;;;;;;7.72;6.22;;;;;;;19.21;100.00;100330.69;4937945;28;20727;-78
2021/07/27 00:44:02;;;;;;;6.93;6.30;;;;;;;19.27;100.00;100324.63;4953504;29;20184;-79
2021/07/27 00:46:36;;;;;;;6.78;6.18;;;;;;;19.26;100.00;100322.19;4962394;28;20230;-79
2021/07/27 00:49:01;;;;;;;7.03;5.90;;;;;;;19.10;100.00;100320.38;4971696;28;20191;-78
2021/07/27 00:51:28;;;;;;;7.03;5.93;;;;;;;19.19;100.00;100316.41;4958830;28;20276;-77
2021/07/27 00:53:56;;;;;;;6.82;6.13;;;;;;;19.06;100.00;100328.50;4901685;29;20212;-78
2021/07/27 00:56:21;;;;;;;6.95;6.35;;;;;;;18.99;100.00;100325.50;4928483;28;20233;-78
2021/07/27 00:58:49;;;;;;;6.63;5.97;;;;;;;19.01;100.00;100327.91;4939637;29;20570;-78
2021/07/27 01:01:20;;;;;;;6.70;6.05;;;;;;;18.94;100.00;100322.09;4962282;28;20217;-79
2021/07/27 01:03:46;;;;;;;6.65;5.78;;;;;;;19.00;100.00;100329.06;4952169;29;20319;-78
2021/07/27 01:06:12;;;;;;;6.75;6.07;;;;;;;18.97;100.00;100330.53;4940937;29;20314;-78
2021/07/27 01:08:40;;;;;;;6.75;6.15;;;;;;;18.95;100.00;100332.78;4972239;28;20187;-78
2021/07/27 01:11:05;;;;;;;6.82;6.22;;;;;;;18.98;100.00;100332.13;4951045;28;20279;-78
2021/07/27 01:13:36;;;;;;;7.03;6.32;;;;;;;18.90;100.00;100329.44;4951173;29;20191;-77
2021/07/27 01:16:06;;;;;;;7.18;6.40;;;;;;;18.97;100.00;100330.53;4920762;29;20235;-78
2021/07/27 01:18:44;;;;;;;6.35;5.75;;;;;;;18.92;100.00;100325.19;4955232;28;20191;-79
2021/07/27 01:37:53;;;;;;;7.53;6.45;;;;;;;18.84;100.00;100324.44;4948824;29;20261;-78
2021/07/27 01:40:24;;;;;;;6.90;6.13;;;;;;;18.68;100.00;100326.16;4959624;28;20194;-77
2021/07/27 01:42:51;;;;;;;7.13;6.18;;;;;;;18.74;100.00;100322.09;4930591;29;20579;-77
2021/07/27 01:45:20;;;;;;;6.93;6.32;;;;;;;18.68;100.00;100320.66;4936438;28;20191;-77
2021/07/27 01:47:45;;;;;;;7.25;6.45;;;;;;;18.78;100.00;100325.78;4964154;28;20716;-78
2021/07/27 01:50:16;;;;;;;6.70;5.95;;;;;;;18.85;100.00;100320.56;4970082;28;20207;-78
2021/07/27 01:52:46;;;;;;;7.25;6.30;;;;;;;18.81;100.00;100320.41;4929100;29;20188;-78
2021/07/27 01:55:16;;;;;;;7.10;6.50;;;;;;;18.73;100.00;100320.47;4937226;28;20206;-78
2021/07/27 01:57:44;;;;;;;6.55;5.95;;;;;;;18.77;100.00;100326.91;4939476;29;20191;-78
2021/07/27 02:00:10;;;;;;;6.88;6.18;;;;;;;18.66;100.00;100331.19;4937289;28;20183;-78
2021/07/27 02:02:36;;;;;;;6.60;6.00;;;;;;;18.64;100.00;100325.22;4922023;29;20182;-78
2021/07/27 02:05:10;;;;;;;6.25;5.75;;;;;;;18.68;100.00;100334.41;4953703;28;20207;-78
2021/07/27 02:07:36;;;;;;;6.03;5.53;;;;;;;18.65;100.00;100340.59;4947008;29;20223;-79
2021/07/27 02:10:07;;;;;;;6.55;5.95;;;;;;;18.60;100.00;100343.53;4936488;28;20180;-78
2021/07/27 02:12:39;;;;;;;6.88;6.07;;;;;;;18.76;100.00;100339.06;4944496;29;20234;-78
2021/07/27 02:15:07;;;;;;;6.45;5.85;;;;;;;18.80;100.00;100331.75;4970670;28;20207;-78
2021/07/27 02:17:33;;;;;;;6.57;6.07;;;;;;;18.63;100.00;100334.63;4962173;28;20195;-78
2021/07/27 02:19:59;;;;;;;7.07;6.38;;;;;;;18.58;100.00;100343.06;4903003;29;20228;-79
2021/07/27 02:22:27;;;;;;;6.65;5.93;;;;;;;18.53;100.00;100354.25;4911701;29;20242;-79
2021/07/27 02:24:53;;;;;;;6.43;5.80;;;;;;;18.62;100.00;100350.31;4955999;28;20238;-78
2021/07/27 02:27:23;;;;;;;6.60;6.00;;;;;;;18.65;100.00;100348.84;4937610;29;20227;-79
2021/07/27 02:29:51;;;;;;;7.20;6.60;;;;;;;18.62;100.00;100344.00;4937163;29;20207;-78
2021/07/27 02:32:21;;;;;;;7.68;6.13;;;;;;;18.68;100.00;100342.66;4955452;29;20331;-79
2021/07/27 02:34:47;;;;;;;6.53;5.93;;;;;;;18.70;100.00;100351.38;4957650;28;20198;-77
2021/07/27 02:37:17;;;;;;;6.68;6.07;;;;;;;18.72;100.00;100360.16;4971116;28;20226;-79
2021/07/27 02:39:43;;;;;;;8.05;6.03;;;;;;;18.60;100.00;100358.09;4956557;29;20195;-78
2021/07/27 02:42:11;;;;;;;7.20;5.80;;;;;;;18.60;100.00;100357.28;4940622;29;20239;-78
2021/07/27 02:44:36;;;;;;;6.93;6.32;;;;;;;18.69;100.00;100352.53;4941140;29;20211;-77
2021/07/27 02:47:05;;;;;;;7.38;6.30;;;;;;;18.72;100.00;100355.44;4955643;29;20242;-78
2021/07/27 02:49:35;;;;;;;6.75;5.95;;;;;;;18.58;100.00;100354.06;4939354;29;20195;-78
2021/07/27 02:52:03;;;;;;;7.25;6.32;;;;;;;18.62;100.00;100349.50;4940350;29;20290;-79
2021/07/27 02:54:34;;;;;;;6.70;5.93;;;;;;;18.57;100.00;100360.69;4959210;29;21026;-78
2021/07/27 02:57:01;;;;;;;6.75;5.95;;;;;;;18.83;100.00;100362.19;4944213;29;20234;-78
2021/07/27 02:59:31;;;;;;;8.27;6.53;;;;;;;18.91;100.00;100359.34;4956232;29;20180;-78
2021/07/27 03:01:57;;;;;;;7.50;6.88;;;;;;;18.85;100.00;100353.59;4940970;29;20232;-79
2021/07/27 03:04:23;;;;;;;7.28;6.57;;;;;;;18.77;100.00;100351.69;4955586;28;20399;-77
2021/07/27 03:06:54;;;;;;;6.50;5.97;;;;;;;18.74;100.00;100355.13;4975192;28;20240;-77
2021/07/27 03:09:24;;;;;;;7.85;6.65;;;;;;;18.71;100.00;100358.53;4948121;29;20242;-79
2021/07/27 03:11:50;;;;;;;6.53;5.97;;;;;;;18.72;100.00;100358.19;4943283;29;20227;-79
2021/07/27 03:14:18;;;;;;;6.75;6.10;;;;;;;18.81;100.00;100355.38;4944237;29;20195;-79
2021/07/27 03:16:43;;;;;;;6.72;6.03;;;;;;;18.83;100.00;100356.69;4960216;28;20231;-79
2021/07/27 03:19:12;;;;;;;7.40;6.20;;;;;;;18.59;100.00;100366.69;4972291;28;20229;-77
2021/07/27 03:21:37;;;;;;;9.20;5.70;;;;;;;18.55;100.00;100368.47;4964324;28;20234;-78
2021/07/27 03:24:03;;;;;;;6.68;6.03;;;;;;;18.61;100.00;100364.41;4929594;29;20187;-78
2021/07/27 03:26:31;;;;;;;6.65;6.15;;;;;;;18.67;100.00;100363.09;4944851;29;20242;-78
2021/07/27 03:28:57;;;;;;;8.77;6.60;;;;;;;18.63;100.00;100362.13;4952580;29;20187;-79
2021/07/27 03:31:22;;;;;;;7.07;6.10;;;;;;;18.60;100.00;100362.78;4948122;28;20215;-79
2021/07/27 03:33:51;;;;;;;6.78;6.18;;;;;;;18.71;100.00;100364.03;4942044;29;20231;-79
2021/07/27 03:36:19;;;;;;;6.88;6.13;;;;;;;18.74;100.00;100363.38;4957928;28;20251;-78
2021/07/27 03:38:49;;;;;;;6.70;6.15;;;;;;;18.77;100.00;100362.69;4945922;29;20797;-78
2021/07/27 03:41:15;;;;;;;6.82;6.32;;;;;;;18.74;100.00;100374.38;4954278;28;20279;-78
2021/07/27 03:43:43;;;;;;;7.15;6.45;;;;;;;18.85;100.00;100370.91;4956462;29;20659;-76
2021/07/27 03:46:11;;;;;;;7.25;6.53;;;;;;;18.69;100.00;100371.81;4941458;29;20236;-78
2021/07/27 03:48:39;;;;;;;7.05;6.35;;;;;;;18.68;100.00;100372.94;4944252;29;20681;-78
2021/07/27 03:51:07;;;;;;;7.20;6.40;;;;;;;18.44;100.00;100371.94;4959344;28;20644;-77
2021/07/27 03:53:33;;;;;;;6.25;5.70;;;;;;;18.33;100.00;100379.75;4957966;28;20183;-77
2021/07/27 03:55:59;;;;;;;9.00;6.32;;;;;;;18.43;100.00;100379.38;4954287;28;20464;-78
2021/07/27 03:58:24;;;;;;;6.80;6.20;;;;;;;18.39;100.00;100380.38;4924233;29;20188;-78
2021/07/27 04:00:50;;;;;;;7.40;6.80;;;;;;;18.49;100.00;100386.31;4907597;29;20635;-76
2021/07/27 04:03:16;;;;;;;6.80;6.20;;;;;;;18.32;100.00;100394.63;4939502;29;20188;-77
2021/07/27 04:05:44;;;;;;;7.28;6.40;;;;;;;18.34;100.00;100391.56;4943299;29;20701;-79
2021/07/27 04:08:12;;;;;;;6.80;6.20;;;;;;;18.34;100.00;100381.34;4944065;29;20199;-78
2021/07/27 04:10:40;;;;;;;6.82;6.13;;;;;;;18.35;100.00;100398.66;4942397;29;20223;-76
2021/07/27 04:13:11;;;;;;;9.55;8.73;;;;;;;18.43;100.00;100395.88;4940237;29;20180;-78
2021/07/27 04:15:38;;;;;;;7.43;6.57;;;;;;;18.46;100.00;100389.75;4960662;28;20234;-78
2021/07/27 04:18:04;;;;;;;6.85;6.25;;;;;;;18.29;100.00;100398.03;4950886;29;20189;-79
2021/07/27 04:20:32;;;;;;;6.90;6.32;;;;;;;18.28;100.00;100399.19;4933250;29;20699;-77
2021/07/27 04:23:00;;;;;;;7.32;6.63;;;;;;;18.37;100.00;100388.97;4923541;29;20199;-78
2021/07/27 04:25:30;;;;;;;7.38;6.68;;;;;;;18.45;100.00;100392.81;4953582;28;20496;-77
2021/07/27 04:27:58;;;;;;;7.68;6.97;;;;;;;18.39;100.00;100388.63;4943842;29;20202;-78
2021/07/27 04:30:29;;;;;;;8.02;7.03;;;;;;;18.33;100.00;100389.94;4963930;28;20223;-78
2021/07/27 04:32:56;;;;;;;11.30;10.23;;;;;;;18.40;100.00;100388.28;4955937;29;20199;-77
2021/07/27 04:35:25;;;;;;;24.42;21.00;;;;;;;18.38;100.00;100387.81;4951776;28;20598;-76
2021/07/27 04:37:51;;;;;;;47.03;42.15;;;;;;;18.34;100.00;100389.63;4929312;29;20198;-77
2021/07/27 04:40:21;;;;;;;9.73;8.82;;;;;;;18.54;100.00;100386.13;4941974;29;20187;-77
2021/07/27 04:42:52;;;;;;;8.25;7.45;;;;;;;18.68;100.00;100397.69;4943954;29;20189;-78
2021/07/27 04:45:20;;;;;;;7.78;7.07;;;;;;;18.79;100.00;100398.94;4959032;28;20759;-78
2021/07/27 04:47:47;;;;;;;8.25;7.40;;;;;;;18.91;100.00;100381.38;4958485;29;20171;-77
2021/07/27 04:50:18;;;;;;;8.50;6.75;;;;;;;18.81;100.00;100392.00;4934353;28;20757;-77
2021/07/27 04:52:50;;;;;;;7.57;6.88;;;;;;;18.72;100.00;100393.19;4939804;29;20192;-79
2021/07/27 04:55:16;;;;;;;7.85;6.78;;;;;;;18.77;100.00;100392.97;4946767;28;20258;-77
2021/07/27 04:57:42;;;;;;;7.70;7.00;;;;;;;19.13;100.00;100394.88;4942709;29;20194;-77
2021/07/27 05:00:28;;;;;;;7.93;6.65;;;;;;;19.19;100.00;100410.06;4952929;28;20203;-78
2021/07/27 05:02:57;;;;;;;6.88;6.00;;;;;;;19.18;100.00;100413.97;4957097;29;20191;-77
2021/07/27 05:05:25;;;;;;;8.65;5.90;;;;;;;19.21;100.00;100407.81;4958489;28;20283;-78
2021/07/27 05:07:53;;;;;;;6.68;6.07;;;;;;;19.29;100.00;100409.69;4958230;28;20182;-78
2021/07/27 05:10:19;;;;;;;6.63;6.00;;;;;;;19.27;100.00;100405.63;4937936;29;20203;-77
2021/07/27 05:12:49;;;;;;;6.55;5.80;;;;;;;19.33;100.00;100402.34;4939799;29;20188;-77
2021/07/27 05:15:15;;;;;;;7.13;5.93;;;;;;;19.49;100.00;100401.41;4958292;28;20211;-78
2021/07/27 05:17:53;;;;;;;6.75;6.15;;;;;;;19.47;100.00;100405.66;4956649;28;20214;-74
2021/07/27 05:20:22;;;;;;;6.70;6.00;;;;;;;19.41;100.00;100406.97;4938602;28;20227;-77
2021/07/27 05:22:48;;;;;;;5.97;5.38;;;;;;;19.41;100.00;100406.97;4955112;29;20211;-77
2021/07/27 05:25:17;;;;;;;9.68;8.63;;;;;;;19.58;100.00;100401.31;4926380;28;20237;-78
2021/07/27 05:27:48;;;;;;;6.22;5.72;;;;;;;19.65;100.00;100396.09;4974614;28;20234;-77
2021/07/27 05:30:16;;;;;;;6.85;6.25;;;;;;;19.74;100.00;100401.19;4958275;29;20190;-77
2021/07/27 05:32:44;;;;;;;7.53;6.82;;;;;;;19.95;100.00;100402.00;4924669;29;20218;-77
2021/07/27 05:35:10;;;;;;;7.60;6.90;;;;;;;20.15;100.00;100390.09;4938946;28;20204;-78
2021/07/27 05:37:38;;;;;;;9.40;7.47;;;;;;;20.08;100.00;100395.38;4958388;29;20190;-77
2021/07/27 05:40:04;;;;;;;8.05;7.35;;;;;;;19.89;100.00;100389.56;4925720;28;20575;-76
2021/07/27 05:42:30;;;;;;;7.47;6.78;;;;;;;20.06;100.00;100394.09;4923507;29;20183;-77
2021/07/27 05:44:55;;;;;;;8.63;7.25;;;;;;;20.06;100.00;100392.94;4955154;29;20182;-77
2021/07/27 05:47:23;;;;;;;9.45;8.02;;;;;;;20.04;100.00;100388.13;4955819;28;20767;-78
2021/07/27 05:49:50;;;;;;;8.60;7.80;;;;;;;20.12;100.00;100390.78;4958430;29;20661;-76
2021/07/27 05:52:20;;;;;;;8.75;7.95;;;;;;;20.00;100.00;100390.75;4938821;29;20235;-76
2021/07/27 05:54:48;;;;;;;9.15;8.27;;;;;;;20.02;100.00;100391.22;4905814;29;20266;-77
2021/07/27 05:57:17;;;;;;;9.25;8.35;;;;;;;20.18;100.00;100401.25;4937889;28;20225;-77
2021/07/27 05:59:46;;;;;;;9.43;8.43;;;;;;;20.23;100.00;100398.25;4941233;29;20616;-76
2021/07/27 06:02:20;;;;;;;9.82;8.82;;;;;;;20.29;100.00;100393.34;4941648;28;20223;-75
2021/07/27 06:04:51;;;;;;;9.98;8.98;;;;;;;20.44;100.00;100394.28;4953373;29;20703;-77
2021/07/27 06:07:17;;;;;;;10.70;9.00;;;;;;;20.26;100.00;100391.28;4951837;29;20215;-75
2021/07/27 06:09:42;;;;;;;9.88;8.88;;;;;;;20.41;100.00;100396.13;4957534;28;20593;-76
2021/07/27 06:12:10;;;;;;;9.02;8.23;;;;;;;20.62;100.00;100390.22;4928166;29;20598;-75
2021/07/27 06:14:36;;;;;;;10.32;9.10;;;;;;;20.51;100.00;100394.53;4938107;28;20187;-76
2021/07/27 06:17:04;;;;;;;10.85;9.85;;;;;;;20.43;100.00;100407.63;4957616;28;20759;-76
2021/07/27 06:19:32;;;;;;;10.57;9.48;;;;;;;20.57;100.00;100398.66;4973598;28;20191;-77
2021/07/27 06:22:03;;;;;;;10.63;9.15;;;;;;;20.68;100.00;100396.31;4932769;29;20231;-77
2021/07/27 06:24:28;;;;;;;11.27;10.10;;;;;;;20.63;100.00;100394.56;4955503;29;20188;-77
2021/07/27 06:26:56;;;;;;;12.00;10.77;;;;;;;20.91;100.00;100393.53;4948086;29;20620;-76
2021/07/27 06:29:27;;;;;;;11.15;9.85;;;;;;;20.88;100.00;100398.94;4941203;29;20203;-77
2021/07/27 06:31:57;;;;;;;10.93;9.93;;;;;;;20.83;100.00;100404.69;4921832;28;20220;-76
2021/07/27 06:34:23;;;;;;;11.45;10.23;;;;;;;20.93;100.00;100395.94;4938386;29;20184;-76
2021/07/27 06:36:48;;;;;;;11.07;9.90;;;;;;;21.05;100.00;100398.69;4943776;28;20238;-76
2021/07/27 06:39:17;;;;;;;11.40;10.27;;;;;;;21.00;100.00;100401.69;4941245;29;20187;-76
2021/07/27 06:41:43;;;;;;;10.90;9.30;;;;;;;21.22;100.00;100395.69;4948697;29;20212;-76
2021/07/27 06:44:11;;;;;;;10.60;9.57;;;;;;;21.23;100.00;100396.13;4934099;29;20207;-74
2021/07/27 06:46:39;;;;;;;11.43;10.23;;;;;;;21.29;100.00;100391.97;4924777;28;20693;-77
2021/07/27 06:49:04;;;;;;;10.98;9.80;;;;;;;21.41;100.00;100402.22;4925537;29;20191;-77
2021/07/27 06:51:32;;;;;;;11.30;10.20;;;;;;;21.47;100.00;100404.41;4954554;28;20223;-76
2021/07/27 06:53:58;;;;;;;12.13;10.02;;;;;;;21.32;100.00;100404.31;4938334;29;20183;-76
2021/07/27 06:56:29;;;;;;;10.63;9.60;;;;;;;21.40;100.00;100415.25;4952926;28;20255;-76
2021/07/27 06:58:57;;;;;;;10.00;9.02;;;;;;;21.62;100.00;100420.25;4957319;28;20249;-76
2021/07/27 07:01:22;;;;;;;10.07;9.07;;;;;;;21.41;100.00;100425.16;4939600;29;20697;-74
2021/07/27 07:03:53;;;;;;;11.80;9.18;;;;;;;21.63;100.00;100421.88;4951757;29;20234;-76
2021/07/27 07:06:30;;;;;;;9.98;8.95;;;;;;;21.72;100.00;100422.50;4937869;28;20296;-76
2021/07/27 07:08:58;;;;;;;10.02;8.98;;;;;;;21.71;100.00;100423.69;4931902;29;20190;-75
2021/07/27 07:11:27;;;;;;;9.95;8.90;;;;;;;21.53;100.00;100427.09;4952981;28;20698;-76
2021/07/27 07:13:55;;;;;;;9.00;8.10;;;;;;;21.57;100.00;100427.97;4958211;29;20195;-76
2021/07/27 07:16:26;;;;;;;8.65;7.85;;;;;;;21.72;100.00;100434.41;4940188;28;20705;-76
2021/07/27 07:18:54;;;;;;;10.73;9.60;;;;;;;21.81;100.00;100428.72;4920352;29;20193;-76
2021/07/27 07:21:22;;;;;;;11.02;9.98;;;;;;;21.93;100.00;100431.44;4932996;29;20242;-76
2021/07/27 07:23:53;;;;;;;11.20;10.10;;;;;;;22.21;100.00;100421.97;4936373;29;20548;-77
2021/07/27 07:26:18;;;;;;;11.20;10.00;;;;;;;22.15;100.00;100432.50;4959795;28;20305;-76
2021/07/27 07:28:44;;;;;;;11.55;10.45;;;;;;;22.07;100.00;100425.16;4908460;29;20188;-77
2021/07/27 07:31:16;;;;;;;10.63;9.52;;;;;;;22.16;100.00;100420.28;4940603;29;20246;-75
2021/07/27 07:33:44;;;;;;;11.07;9.93;;;;;;;22.20;100.00;100425.94;4960124;28;20738;-76
2021/07/27 07:36:13;;;;;;;10.57;9.57;;;;;;;22.23;100.00;100431.53;4959430;29;20892;-76
2021/07/27 07:38:42;;;;;;;10.75;9.68;;;;;;;22.62;100.00;100425.88;4930354;29;20188;-76
2021/07/27 07:41:15;;;;;;;10.65;9.65;;;;;;;22.35;100.00;100436.22;4956853;28;20223;-75
2021/07/27 07:43:43;;;;;;;10.32;9.27;;;;;;;22.26;100.00;100439.13;4925982;29;20223;-76
2021/07/27 07:46:09;;;;;;;10.82;9.82;;;;;;;21.95;100.00;100434.66;4939409;29;20220;-75
2021/07/27 07:48:37;;;;;;;11.05;9.95;;;;;;;21.93;100.00;100436.97;4958423;29;20238;-75
2021/07/27 07:51:03;;;;;;;10.63;9.73;;;;;;;21.95;100.00;100451.25;4942747;28;20600;-76
2021/07/27 07:53:31;;;;;;;10.98;9.95;;;;;;;21.91;100.00;100444.81;4955894;29;20202;-76
2021/07/27 07:55:59;;;;;;;10.73;9.73;;;;;;;21.98;100.00;100450.53;4956001;28;20227;-76
2021/07/27 07:58:32;;;;;;;10.52;9.52;;;;;;;22.03;100.00;100442.78;4952655;29;20179;-76
2021/07/27 08:01:00;;;;;;;9.93;8.93;;;;;;;22.40;100.00;100443.09;4959420;28;20285;-76
2021/07/27 08:03:32;;;;;;;10.82;9.73;;;;;;;22.11;100.00;100442.66;4935978;29;20592;-75
2021/07/27 08:06:00;;;;;;;10.55;9.55;;;;;;;22.48;100.00;100447.66;4955577;28;20239;-76
2021/07/27 08:08:28;;;;;;;9.55;8.57;;;;;;;22.96;100.00;100450.91;4948458;28;20193;-76
2021/07/27 08:10:56;;;;;;;9.38;8.38;;;;;;;23.27;100.00;100448.09;4958926;28;20227;-76
2021/07/27 08:13:24;;;;;;;9.55;8.73;;;;;;;22.88;100.00;100449.13;4928168;29;20194;-77
2021/07/27 08:15:52;;;;;;;9.15;8.27;;;;;;;22.95;100.00;100454.88;4938417;28;20223;-76
2021/07/27 08:18:17;;;;;;;9.23;8.45;;;;;;;22.92;100.00;100461.09;4944147;28;20262;-76
2021/07/27 08:20:45;;;;;;;9.65;8.75;;;;;;;22.88;100.00;100465.75;4957754;28;20597;-75
2021/07/27 08:23:11;;;;;;;9.57;8.77;;;;;;;23.06;100.00;100461.47;4972063;28;20239;-75
2021/07/27 08:25:39;;;;;;;10.05;9.25;;;;;;;23.18;100.00;100453.03;4937381;29;20227;-74
2021/07/27 08:28:09;;;;;;;9.45;8.55;;;;;;;23.63;100.00;100451.38;4939406;29;20188;-75
2021/07/27 08:30:35;;;;;;;9.95;8.95;;;;;;;23.34;100.00;100456.59;4941176;29;20245;-75
2021/07/27 08:33:01;;;;;;;9.65;8.75;;;;;;;23.03;100.00;100462.19;4973182;28;20641;-75
2021/07/27 08:35:29;;;;;;;9.75;8.82;;;;;;;22.87;100.00;100472.44;4954885;28;20235;-76
2021/07/27 08:37:54;;;;;;;11.13;10.02;;;;;;;22.23;100.00;100480.56;4908027;29;20226;-75
2021/07/27 08:40:22;;;;;;;13.32;12.02;;;;;;;21.70;100.00;100474.59;4972722;28;20570;-76
2021/07/27 08:42:53;;;;;;;13.20;11.85;;;;;;;21.67;100.00;100469.78;4959423;28;20171;-76
2021/07/27 08:45:23;;;;;;;14.23;12.88;;;;;;;21.54;100.00;100468.22;4938629;29;20288;-76
2021/07/27 08:47:51;;;;;;;14.60;13.20;;;;;;;21.66;100.00;100471.72;4939386;29;20192;-76
2021/07/27 08:50:17;;;;;;;14.88;13.48;;;;;;;22.21;100.00;100467.06;4954226;28;20191;-77
2021/07/27 08:52:45;;;;;;;14.77;13.27;;;;;;;22.34;100.00;100465.84;4942657;29;20187;-76
2021/07/27 08:55:13;;;;;;;13.32;12.02;;;;;;;22.74;100.00;100483.16;4922335;28;20211;-75
2021/07/27 08:57:52;;;;;;;11.90;10.88;;;;;;;22.78;100.00;100471.00;4939076;29;20194;-76
2021/07/27 09:00:23;;;;;;;12.18;11.05;;;;;;;22.77;100.00;100480.47;4968641;28;20187;-77
2021/07/27 09:02:53;;;;;;;10.95;9.90;;;;;;;22.74;100.00;100472.06;4943319;28;20183;-75
2021/07/27 09:05:19;;;;;;;11.88;10.77;;;;;;;22.69;100.00;100475.09;4941833;28;20290;-76
2021/07/27 09:07:49;;;;;;;11.77;10.68;;;;;;;22.80;100.00;100474.22;4938918;29;20710;-77
2021/07/27 09:10:15;;;;;;;11.77;10.57;;;;;;;22.86;100.00;100478.34;4942033;28;20191;-76
2021/07/27 09:12:53;;;;;;;11.60;10.50;;;;;;;23.45;100.00;100472.31;4958620;29;20197;-76
2021/07/27 09:15:19;;;;;;;12.18;11.07;;;;;;;23.60;98.16;100465.94;4943635;28;20230;-75
2021/07/27 09:18:07;;;;;;;11.13;9.88;;;;;;;23.60;100.00;100466.75;4938562;29;20175;-75
2021/07/27 09:20:39;;;;;;;13.05;10.40;;;;;;;23.90;100.00;100472.53;4969102;28;20226;-76
2021/07/27 09:23:08;;;;;;;10.85;9.75;;;;;;;24.18;94.45;100476.72;4941800;29;20179;-76
2021/07/27 09:25:36;;;;;;;10.48;9.48;;;;;;;24.04;95.27;100476.44;4943445;29;20228;-76
2021/07/27 09:28:11;;;;;;;9.27;8.48;;;;;;;24.42;93.32;100471.69;4938580;29;20188;-77
2021/07/27 09:30:40;;;;;;;9.30;8.40;;;;;;;24.30;89.31;100471.03;4956570;29;20218;-76
2021/07/27 09:33:06;;;;;;;8.75;7.95;;;;;;;24.40;93.96;100474.81;4942243;29;20576;-76
2021/07/27 09:35:32;;;;;;;8.85;7.95;;;;;;;24.36;91.37;100473.97;4944936;29;20242;-76
2021/07/27 09:38:00;;;;;;;9.00;8.15;;;;;;;23.96;89.87;100480.25;4938053;29;20176;-75
2021/07/27 09:40:26;;;;;;;9.45;8.55;;;;;;;23.69;93.68;100486.78;4965889;28;20245;-75
2021/07/27 09:42:54;;;;;;;9.57;8.68;;;;;;;23.58;94.47;100479.38;4926212;29;20179;-75
2021/07/27 09:45:20;;;;;;;9.68;8.77;;;;;;;23.40;100.00;100494.78;4914980;28;20243;-76
2021/07/27 09:47:48;;;;;;;11.10;10.10;;;;;;;22.90;100.00;100501.44;4952860;28;20640;-75
2021/07/27 09:50:15;;;;;;;12.60;11.30;;;;;;;22.32;100.00;100509.69;4944379;28;20191;-74
2021/07/27 09:52:43;;;;;;;14.05;12.55;;;;;;;21.75;100.00;100513.09;4956102;29;20187;-76
2021/07/27 09:55:13;;;;;;;15.48;13.38;;;;;;;21.19;100.00;100516.00;4934724;29;20215;-75
2021/07/27 09:57:41;;;;;;;15.70;14.10;;;;;;;20.99;100.00;100521.66;4936660;29;20183;-74
2021/07/27 10:00:07;;;;;;;15.65;14.15;;;;;;;20.79;100.00;100511.47;4936725;28;20187;-74
2021/07/27 10:02:35;;;;;;;15.48;13.88;;;;;;;20.90;100.00;100512.66;4936409;29;20274;-74
2021/07/27 10:05:03;;;;;;;16.13;14.55;;;;;;;21.50;100.00;100500.47;4956701;28;20202;-75
2021/07/27 10:07:29;;;;;;;18.35;16.55;;;;;;;21.94;100.00;100499.44;4908163;29;20775;-75
2021/07/27 10:10:07;;;;;;;20.52;18.52;;;;;;;22.25;100.00;100495.69;4935661;28;20708;-74
2021/07/27 10:12:34;;;;;;;24.15;21.65;;;;;;;22.37;100.00;100492.03;4951611;29;20248;-75
2021/07/27 10:15:11;;;;;;;19.33;17.42;;;;;;;22.40;100.00;100501.25;4955357;28;20183;-75
2021/07/27 10:17:57;;;;;;;20.92;18.80;;;;;;;22.67;100.00;100499.59;4956068;28;20214;-74
2021/07/27 10:20:27;;;;;;;19.83;17.48;;;;;;;22.47;100.00;100504.22;4920363;28;20227;-74
2021/07/27 10:22:53;;;;;;;19.98;17.88;;;;;;;22.47;100.00;100509.75;4935436;29;20195;-75
2021/07/27 10:25:25;;;;;;;20.80;18.60;;;;;;;22.57;100.00;100509.22;4939239;28;20234;-74
2021/07/27 10:27:54;;;;;;;20.75;18.65;;;;;;;22.77;100.00;100505.41;4939263;29;20194;-75
2021/07/27 10:30:36;;;;;;;20.10;18.17;;;;;;;23.08;100.00;100514.59;4935410;28;20192;-75
2021/07/27 10:33:08;;;;;;;19.80;17.90;;;;;;;23.15;100.00;100514.78;4951609;29;20286;-75
2021/07/27 10:35:34;;;;;;;20.85;18.73;;;;;;;23.24;100.00;100507.03;4940441;28;20231;-76
2021/07/27 10:38:14;;;;;;;20.27;18.40;;;;;;;23.27;100.00;100512.69;4939554;28;20649;-75
2021/07/27 10:40:47;;;;;;;21.30;19.15;;;;;;;23.56;100.00;100510.22;4951549;28;20243;-75
2021/07/27 10:43:26;;;;;;;21.15;19.25;;;;;;;23.64;100.00;100512.03;4952068;29;20199;-77
2021/07/27 10:46:10;;;;;;;20.63;18.73;;;;;;;23.56;100.00;100509.41;4941618;29;20236;-76
2021/07/27 10:48:45;;;;;;;19.95;18.08;;;;;;;23.42;100.00;100508.28;4957027;28;20188;-75
2021/07/27 10:51:18;;;;;;;20.92;18.83;;;;;;;23.56;100.00;100507.44;4951987;28;20226;-75
2021/07/27 10:53:43;;;;;;;19.83;18.02;;;;;;;23.51;100.00;100506.13;4937826;29;20737;-76
2021/07/27 10:56:14;;;;;;;20.40;18.48;;;;;;;23.71;100.00;100506.63;4957770;28;20222;-76
2021/07/27 10:58:43;;;;;;;20.20;18.40;;;;;;;23.71;100.00;100506.63;4951627;28;20204;-76
2021/07/27 11:01:11;;;;;;;19.48;17.63;;;;;;;23.92;100.00;100490.47;4917306;29;20234;-76
2021/07/27 11:03:38;;;;;;;19.23;17.52;;;;;;;23.97;100.00;100492.94;4943676;29;20187;-76
2021/07/27 11:06:04;;;;;;;17.83;16.20;;;;;;;24.13;100.00;100499.22;4953776;28;20215;-75
2021/07/27 11:08:31;;;;;;;17.65;16.05;;;;;;;24.07;100.00;100490.38;4956325;29;20215;-77
2021/07/27 11:11:17;;;;;;;16.40;14.88;;;;;;;24.65;100.00;100497.53;4958510;29;20257;-76
2021/07/27 11:13:54;;;;;;;14.93;13.52;;;;;;;25.28;100.00;100481.59;4930449;29;20541;-77
2021/07/27 11:16:24;;;;;;;13.65;12.40;;;;;;;25.25;98.70;100474.00;4924051;29;20239;-77
2021/07/27 11:18:52;;;;;;;14.02;12.73;;;;;;;25.44;99.00;100470.31;4940202;29;20195;-75
2021/07/27 11:21:20;;;;;;;11.00;10.02;;;;;;;25.26;91.41;100470.03;4923595;28;20215;-77
2021/07/27 11:23:51;;;;;;;9.57;8.77;;;;;;;25.67;86.58;100469.09;4941041;29;20179;-76
2021/07/27 11:26:17;;;;;;;10.40;9.50;;;;;;;25.49;84.86;100464.41;4942550;28;20227;-77
2021/07/27 11:28:42;;;;;;;10.80;9.90;;;;;;;25.71;83.42;100458.81;4926096;29;20191;-76
2021/07/27 11:31:17;;;;;;;9.13;8.38;;;;;;;25.39;83.99;100468.66;4924647;29;20238;-75
2021/07/27 11:33:56;;;;;;;8.75;7.78;;;;;;;25.34;82.55;100468.16;4923115;29;20196;-75
2021/07/27 11:36:23;;;;;;;8.40;7.55;;;;;;;25.35;84.03;100473.38;4941474;29;20214;-76